KBIH/BIH METAR and TAF weather

Enter ICAO airport designator
Station Type Date Time Source
KBIH METAR 2021/09/24 05:56 UTC NOAA

KBIH 240556Z AUTO 34005KT 10SM CLR 20/M04 A3012 RMK AO2 SLP150 T02001039 10328 20200 51024


Station Type Date Time Source
KBIH Decoded METAR 2021/09/24 05:56 UTC NOAA

BISHOP AIRPORT, CA, United States (KBIH) 37-22N 118-22W 1253M
Sep 24, 2021 - 01:56 AM EDT / 2021.09.24 0556 UTC
Wind: from the NNW (340 degrees) at 6 MPH (5 KT):0
Visibility: 10 mile(s):0
Sky conditions: clear
Temperature: 68.0 F (20.0 C)
Dew Point: 25.0 F (-3.9 C)
Relative Humidity: 19%
Pressure (altimeter): 30.12 in. Hg (1019 hPa)
Pressure tendency: 0.07 inches (2.4 hPa) higher than three hours ago
ob: KBIH 240556Z AUTO 34005KT 10SM CLR 20/M04 A3012 RMK AO2 SLP150 T02001039 10328 20200 51024
cycle: 6

Station Type Date Time Source
KBIH TAF 2021/09/24 06:22 UTC NOAA

TAF KBIH 240520Z 2406/2506 36008KT P6SM FEW250
FM242100 20010KT P6SM FEW250
FM250500 34008KT P6SM SKC

Example: see airport list